メインページ
METAR-TAF:

METAR-TAF

空港 :

レシフェ, ペルナンブーコ州, ブラジル

レシフェ/グアララペス・ジルベルト・フレイレ国際空港

緯度: 08-08S, 経度: 034-55W, 海抜: 19m

現時点の気象観測

当レポートは30分前の17:00(UTC)に作成
南東の風 11kt
気温 28°C
湿度 66%
気圧 1014 hPa
視程10km以上
高度2500ftの雲はほとんどない

METAR: SBRF 231700Z 14011KT 9999 FEW025 28/21 Q1014

時間: 14:30 (17:30 UTC)

予報

当レポートは7時間30分前の10:00(UTC)に作成
予報は23日の 12時(UTC)から 24日の 12時(UTC)まで有効
南東の風 13kt
視程: 9000m
高度2000ftの雲は散在している
確率 40% :
23日の 12時(UTC)から 23日の 13時(UTC)まで一時的に
視程: 5000m
高度1700ftの千切れ雲あり
23日の 20時(UTC)から 23日の 21時(UTC)まで徐々に
南/南東の風 8kt
確率 40% :
23日の 22時(UTC)から 23日の 24時(UTC)まで一時的に
視程: 5000m
高度1700ftの千切れ雲あり
24日の 02時(UTC)から 24日の 04時(UTC)まで徐々に
高度1700ftの千切れ雲あり
24日の 08時(UTC)から 24日の 11時(UTC)まで一時的に
視程: 4000m
高度1200ftの千切れ雲あり

TAF: SBRF 231000Z 2312/2412 14013KT 9000 SCT020 TX28/2315Z TN23/2408Z PROB40 TEMPO 2312/2313 5000 RA BKN017 BECMG 2320/2321 16008KT PROB40 TEMPO 2322/2324 5000 RA BKN017 BECMG 2402/2404 BKN017 TEMPO 2408/2411 4000 RA BKN012 RMK PEI

4,000以上の空港の気象観測と天気予報(METAR報とTAF報)

利用可能な観測所は地図上に黄色い丸と赤い丸で示す。

丸の上にカーソルを重ねると観測所名を参照できる。

次にクリックすると気象観測と天気予報を参照できる。

マップの切り替え:黒色「×」印の緑ボタンをクリックして拡大、「-」印の緑ボタンをクリックして縮小、緑色の三角印をクリックして隣りの地図に切り替え


METAR-TAF: